Time;durP1;ratioP1;P1;durP2;ratioP2;P2;SDS_P1;SDS_P2;PMS_P1;PMS_P2;Temp;Humidity;BMP_temperature;BMP_pressure;BME280_temperature;BME280_humidity;BME280_pressure;Samples;Min_cycle;Max_cycle;Signal;HPM_P1;HPM_P2
2021/03/11 05:15:40;;;;;;;50.90;24.63;;;;;;;-0.59;55.48;99872.87;1834865;77;25778;-62
2021/03/11 05:18:09;;;;;;;51.98;21.37;;;;;;;-0.62;54.40;99877.73;1728926;83;21533;-58
2021/03/11 05:20:37;;;;;;;55.40;19.87;;;;;;;-0.45;54.10;99884.46;1744599;82;21191;-59
2021/03/11 05:23:06;;;;;;;38.30;15.60;;;;;;;0.03;53.28;99886.45;1728644;82;21690;-56
2021/03/11 05:25:34;;;;;;;35.45;15.20;;;;;;;0.45;51.13;99892.60;1744587;82;21147;-61
2021/03/11 05:28:02;;;;;;;35.48;18.60;;;;;;;0.96;50.18;99892.95;1733515;82;21161;-57
2021/03/11 05:30:30;;;;;;;29.65;16.87;;;;;;;1.41;48.97;99895.36;1730623;82;21138;-63
2021/03/11 05:32:57;;;;;;;37.15;18.62;;;;;;;1.65;47.42;99897.65;1736632;82;21326;-60
2021/03/11 05:35:25;;;;;;;31.62;18.10;;;;;;;1.85;46.72;99898.87;1737636;82;21174;-60
2021/03/11 05:37:53;;;;;;;27.35;16.35;;;;;;;2.25;46.05;99907.22;1737392;82;21147;-61
2021/03/11 05:40:23;;;;;;;27.98;16.65;;;;;;;2.59;45.87;99902.81;1732368;82;21153;-58
2021/03/11 05:42:53;;;;;;;36.25;18.07;;;;;;;2.81;44.29;99908.75;1734824;82;21220;-59
2021/03/11 05:45:22;;;;;;;38.63;18.73;;;;;;;2.83;43.54;99908.05;1731708;82;21191;-61
2021/03/11 05:47:51;;;;;;;32.67;16.02;;;;;;;3.08;43.13;99913.27;1731213;82;21151;-61
2021/03/11 05:50:20;;;;;;;36.70;16.65;;;;;;;3.46;41.78;99910.64;1731665;82;21142;-59
2021/03/11 05:52:52;;;;;;;31.75;16.32;;;;;;;3.34;42.20;99908.72;1730494;82;21182;-57
2021/03/11 05:55:20;;;;;;;29.20;16.37;;;;;;;3.38;41.66;99908.08;1732550;82;21171;-59
2021/03/11 05:57:48;;;;;;;35.28;18.07;;;;;;;3.53;41.10;99906.36;1729554;81;21211;-62
2021/03/11 06:00:21;;;;;;;29.42;16.93;;;;;;;3.78;41.21;99916.20;1733975;82;21331;-62
2021/03/11 06:02:59;;;;;;;34.03;16.73;;;;;;;4.13;40.66;99918.47;1731699;82;21777;-63
2021/03/11 06:05:27;;;;;;;38.23;15.93;;;;;;;4.55;40.23;99918.52;1730385;82;21225;-60
2021/03/11 06:07:56;;;;;;;31.42;16.87;;;;;;;5.28;39.20;99921.60;1730067;82;21164;-61
2021/03/11 06:10:24;;;;;;;33.18;16.27;;;;;;;5.80;38.96;99909.95;1732786;82;21281;-57
2021/03/11 06:12:52;;;;;;;32.17;16.10;;;;;;;6.38;36.56;99924.87;1733581;82;21549;-60
2021/03/11 06:15:31;;;;;;;30.70;15.58;;;;;;;6.63;36.18;99926.38;1721387;82;21213;-61
2021/03/11 06:18:01;;;;;;;29.32;16.45;;;;;;;6.83;34.82;99927.63;1762362;80;21133;-62
2021/03/11 06:20:29;;;;;;;35.25;16.48;;;;;;;6.21;35.20;99932.72;1763728;80;21754;-60
2021/03/11 06:22:57;;;;;;;30.85;16.17;;;;;;;6.43;35.60;99934.92;1765530;81;21143;-61
2021/03/11 06:25:26;;;;;;;30.20;15.05;;;;;;;6.48;35.06;99927.89;1763275;81;21117;-62
2021/03/11 06:27:56;;;;;;;29.10;16.30;;;;;;;6.78;34.40;99953.09;1743219;81;21760;-60
2021/03/11 06:30:31;;;;;;;29.82;15.68;;;;;;;6.62;34.78;99950.29;1747653;82;21206;-63
2021/03/11 06:33:01;;;;;;;34.23;15.45;;;;;;;7.23;34.26;99951.95;1747659;82;21279;-62
2021/03/11 06:35:29;;;;;;;33.65;16.20;;;;;;;7.87;33.04;99953.98;1748640;81;21123;-59
2021/03/11 06:37:57;;;;;;;37.90;17.62;;;;;;;7.94;32.38;99951.70;1748498;81;21147;-60
2021/03/11 06:40:28;;;;;;;30.17;15.72;;;;;;;7.71;32.65;99951.22;1748705;82;21163;-60
2021/03/11 06:43:13;;;;;;;29.55;15.45;;;;;;;7.70;31.88;99948.20;1748862;82;21190;-64
2021/03/11 06:45:41;;;;;;;25.75;13.80;;;;;;;7.96;32.04;99949.17;1748553;82;21143;-61
2021/03/11 06:48:29;;;;;;;29.18;14.10;;;;;;;7.70;30.39;99959.34;1748648;82;21167;-60
2021/03/11 06:50:59;;;;;;;28.83;14.60;;;;;;;6.60;32.06;99952.32;1761860;81;21147;-63
2021/03/11 06:53:28;;;;;;;27.85;15.75;;;;;;;5.70;33.59;99955.53;1770577;81;21170;-61
2021/03/11 06:56:19;;;;;;;26.82;12.82;;;;;;;5.47;34.38;99962.14;1765228;79;21128;-58
2021/03/11 06:59:05;;;;;;;26.40;12.50;;;;;;;5.77;33.77;99962.29;1750116;81;21746;-57
2021/03/11 07:01:35;;;;;;;27.32;12.73;;;;;;;5.56;34.30;99964.73;1753964;81;21146;-63
2021/03/11 07:04:04;;;;;;;23.95;14.55;;;;;;;5.82;34.50;99970.19;1777800;80;21233;-62
2021/03/11 07:06:38;;;;;;;23.73;13.20;;;;;;;6.06;33.90;99958.54;1749863;81;21220;-60
2021/03/11 07:09:07;;;;;;;19.52;11.73;;;;;;;6.16;33.36;99959.83;1753492;81;21543;-60
2021/03/11 07:11:35;;;;;;;19.27;11.68;;;;;;;6.13;33.65;99958.42;1759994;79;21166;-63
2021/03/11 07:14:04;;;;;;;17.90;10.70;;;;;;;6.42;33.19;99963.95;1761585;80;21297;-59
2021/03/11 07:16:35;;;;;;;21.68;9.83;;;;;;;6.27;32.96;99952.61;1749051;80;21322;-65
2021/03/11 07:19:17;;;;;;;22.67;11.30;;;;;;;6.11;33.30;99958.75;1742874;81;21218;-61
2021/03/11 07:21:51;;;;;;;21.57;12.13;;;;;;;6.43;33.58;99958.86;1738182;81;21167;-57
2021/03/11 07:24:37;;;;;;;27.15;11.90;;;;;;;7.39;31.90;99968.84;1747734;80;21196;-63
2021/03/11 07:27:07;;;;;;;23.98;10.13;;;;;;;8.11;31.71;99963.87;1747283;81;21395;-59
2021/03/11 07:29:36;;;;;;;23.80;11.93;;;;;;;8.38;30.21;99975.59;1746905;81;21311;-63
2021/03/11 07:32:06;;;;;;;20.37;11.38;;;;;;;8.24;30.90;99964.81;1757617;81;21174;-63
2021/03/11 07:34:36;;;;;;;23.40;12.03;;;;;;;8.58;29.87;99976.75;1752896;81;21679;-60
2021/03/11 07:37:04;;;;;;;20.43;11.20;;;;;;;7.68;30.06;99981.52;1746295;81;21586;-63
2021/03/11 07:39:40;;;;;;;24.10;12.30;;;;;;;7.13;31.38;99981.50;1761567;81;21321;-65
2021/03/11 07:42:09;;;;;;;20.82;10.90;;;;;;;7.06;31.70;99986.32;1761225;81;21166;-62
2021/03/11 07:44:38;;;;;;;29.77;14.65;;;;;;;6.78;31.58;99983.01;1761655;80;21288;-63
2021/03/11 07:47:08;;;;;;;21.10;12.80;;;;;;;6.62;32.07;99977.22;1761412;80;21592;-61
2021/03/11 07:49:36;;;;;;;23.22;13.55;;;;;;;6.27;32.26;99973.12;1737656;81;21310;-63
2021/03/11 07:52:07;;;;;;;17.67;12.47;;;;;;;6.22;32.28;99979.31;1751705;81;21284;-57
2021/03/11 07:54:35;;;;;;;19.60;11.28;;;;;;;6.17;32.78;99962.86;1744672;81;21164;-56
2021/03/11 07:57:04;;;;;;;20.65;11.60;;;;;;;6.19;32.81;99959.96;1736467;81;21316;-57
2021/03/11 07:59:32;;;;;;;21.27;10.58;;;;;;;6.46;32.51;99979.91;1761971;81;21132;-61
2021/03/11 08:02:08;;;;;;;20.95;11.15;;;;;;;6.99;31.41;99963.36;1761876;81;21320;-65
2021/03/11 08:04:42;;;;;;;26.95;12.68;;;;;;;7.18;30.89;99978.71;1761432;81;21158;-62
2021/03/11 08:07:25;;;;;;;21.12;12.63;;;;;;;7.14;31.44;99975.54;1757286;80;21647;-63
2021/03/11 08:09:58;;;;;;;21.40;12.50;;;;;;;6.89;31.48;99977.91;1731625;83;21218;-62
2021/03/11 08:12:29;;;;;;;24.20;12.95;;;;;;;6.70;31.46;99972.42;1731833;82;21132;-58
2021/03/11 08:15:16;;;;;;;19.07;12.05;;;;;;;6.38;31.99;99954.36;1735717;81;21197;-59
2021/03/11 08:17:47;;;;;;;18.17;10.43;;;;;;;6.40;32.09;99960.02;1760735;80;21287;-64
2021/03/11 08:20:26;;;;;;;14.93;10.08;;;;;;;7.08;31.38;99943.22;1761798;81;21182;-61
2021/03/11 08:23:01;;;;;;;17.73;10.13;;;;;;;7.91;30.39;99937.84;1759954;80;21324;-57
2021/03/11 08:25:41;;;;;;;19.15;11.00;;;;;;;8.58;29.09;99944.17;1725687;83;21160;-57
2021/03/11 08:28:14;;;;;;;16.00;9.28;;;;;;;8.20;29.05;99969.78;1725720;82;21161;-61
2021/03/11 08:30:56;;;;;;;12.70;9.05;;;;;;;6.97;30.09;99959.84;1725762;83;21161;-57
2021/03/11 08:33:29;;;;;;;14.20;8.73;;;;;;;6.37;31.07;99951.33;1712679;82;21173;-63
2021/03/11 08:36:00;;;;;;;13.18;8.90;;;;;;;5.14;32.54;99959.72;1666265;84;21629;-62
2021/03/11 08:38:36;;;;;;;20.02;8.60;;;;;;;4.89;33.90;99945.75;1676786;84;21168;-61
2021/03/11 08:41:08;;;;;;;15.98;8.23;;;;;;;4.81;33.90;99944.50;1702620;83;21376;-60
2021/03/11 08:43:42;;;;;;;12.28;8.43;;;;;;;4.16;35.13;99950.96;1693175;84;21147;-59
2021/03/11 08:46:16;;;;;;;14.23;9.28;;;;;;;3.70;36.13;99942.60;1693639;84;21166;-61
2021/03/11 08:49:00;;;;;;;13.95;8.28;;;;;;;3.70;36.23;99926.02;1696919;84;21178;-60
2021/03/11 08:51:36;;;;;;;14.40;7.42;;;;;;;3.58;35.88;99904.92;1698009;84;21229;-62
2021/03/11 08:54:06;;;;;;;13.83;8.35;;;;;;;3.56;36.63;99928.23;1697258;84;21662;-60
2021/03/11 08:56:37;;;;;;;14.78;8.83;;;;;;;3.59;36.49;99938.61;1705936;83;21609;-62
2021/03/11 08:59:11;;;;;;;16.25;9.50;;;;;;;3.33;36.92;99929.91;1705796;84;21131;-59
2021/03/11 09:01:53;;;;;;;16.42;9.75;;;;;;;3.69;36.93;99920.84;1705620;84;21142;-60
2021/03/11 09:04:40;;;;;;;15.35;8.75;;;;;;;3.62;36.70;99936.22;1701851;83;21142;-62
2021/03/11 09:07:28;;;;;;;14.15;8.78;;;;;;;2.86;37.50;99949.80;1696415;84;21150;-60
2021/03/11 09:09:57;;;;;;;15.80;8.85;;;;;;;2.32;38.88;99932.27;1663253;84;21186;-58
2021/03/11 09:12:35;;;;;;;17.85;10.18;;;;;;;2.17;39.57;99921.17;1699873;84;21174;-60
2021/03/11 09:15:07;;;;;;;16.93;9.43;;;;;;;2.46;39.70;99922.00;1708287;84;21287;-59
2021/03/11 09:17:37;;;;;;;15.90;10.10;;;;;;;2.80;39.12;99925.72;1727341;82;21306;-61
2021/03/11 09:20:14;;;;;;;17.67;10.70;;;;;;;2.46;39.66;99936.89;1718961;83;21270;-55
2021/03/11 09:22:49;;;;;;;16.35;9.23;;;;;;;2.03;40.41;99913.09;1718766;83;21310;-61
2021/03/11 09:25:25;;;;;;;20.92;10.40;;;;;;;1.68;40.96;99913.09;1718899;82;21584;-59
2021/03/11 09:28:03;;;;;;;19.65;10.82;;;;;;;1.64;41.27;99914.98;1718907;83;21218;-64
2021/03/11 09:30:37;;;;;;;19.20;10.23;;;;;;;1.73;41.13;99922.80;1718639;82;21153;-60
2021/03/11 09:33:12;;;;;;;20.05;11.12;;;;;;;1.54;41.44;99926.65;1718807;83;21250;-59
2021/03/11 09:35:41;;;;;;;18.45;10.18;;;;;;;1.47;41.83;99908.45;1718755;82;21148;-57
2021/03/11 09:38:11;;;;;;;20.95;10.38;;;;;;;1.58;42.33;99905.69;1718800;82;21133;-59
2021/03/11 09:40:44;;;;;;;19.87;10.55;;;;;;;1.62;42.36;99911.46;1734228;82;21170;-58
2021/03/11 09:43:20;;;;;;;16.02;9.60;;;;;;;1.70;42.01;99894.59;1747048;82;21182;-59
2021/03/11 09:46:12;;;;;;;17.65;9.55;;;;;;;1.47;42.16;99925.37;1710940;84;21175;-59
2021/03/11 09:48:56;;;;;;;19.17;10.08;;;;;;;1.22;43.28;99920.41;1746928;82;21324;-61
2021/03/11 09:51:28;;;;;;;18.98;9.40;;;;;;;0.98;43.78;99923.16;1746806;82;21135;-61
2021/03/11 09:53:59;;;;;;;29.37;10.23;;;;;;;0.68;43.89;99916.97;1746833;82;21344;-60
2021/03/11 09:56:40;;;;;;;21.17;9.70;;;;;;;0.74;44.02;99908.86;1746833;82;21230;-62
2021/03/11 09:59:13;;;;;;;17.10;8.40;;;;;;;0.73;43.97;99895.68;1747073;82;21187;-61
2021/03/11 10:01:46;;;;;;;15.53;8.98;;;;;;;0.55;44.13;99922.91;1693901;84;21110;-58
2021/03/11 10:04:28;;;;;;;19.82;10.40;;;;;;;0.35;43.94;99923.24;1719080;82;21176;-63
2021/03/11 10:07:02;;;;;;;17.42;8.85;;;;;;;0.22;44.46;99920.27;1719078;82;21137;-59
2021/03/11 10:09:38;;;;;;;15.83;7.60;;;;;;;0.37;44.12;99912.41;1718916;82;21125;-61
2021/03/11 10:12:13;;;;;;;14.83;7.17;;;;;;;0.75;42.47;99873.80;1870475;76;22121;-63
2021/03/11 10:14:43;;;;;;;15.35;7.33;;;;;;;0.74;41.92;99907.59;1827549;78;21143;-59
2021/03/11 10:17:19;;;;;;;13.13;7.45;;;;;;;0.78;42.02;99902.81;1822695;78;21158;-55
2021/03/11 10:19:49;;;;;;;13.03;7.90;;;;;;;0.65;42.22;99916.38;1827468;77;21103;-61
2021/03/11 10:22:19;;;;;;;17.10;7.45;;;;;;;0.47;42.42;99918.11;1786526;79;21157;-58
2021/03/11 10:24:52;;;;;;;15.28;7.12;;;;;;;0.33;42.31;99915.55;1795091;78;21154;-58
2021/03/11 10:27:26;;;;;;;10.25;6.50;;;;;;;0.15;41.84;99891.08;1794720;79;21146;-61
2021/03/11 10:30:23;;;;;;;14.15;6.60;;;;;;;0.24;42.02;99897.55;1795177;78;21307;-58
2021/03/11 10:33:03;;;;;;;10.85;6.55;;;;;;;0.35;41.97;99900.00;1795138;79;21138;-60
2021/03/11 10:35:37;;;;;;;17.35;6.97;;;;;;;0.34;41.94;99903.72;1795250;80;21256;-59
2021/03/11 10:38:21;;;;;;;10.05;6.00;;;;;;;0.54;42.17;99888.53;1795090;79;21099;-59
2021/03/11 10:40:50;;;;;;;12.95;6.85;;;;;;;0.73;41.57;99853.36;1795088;78;21264;-57
2021/03/11 10:43:31;;;;;;;10.32;6.35;;;;;;;0.97;41.50;99876.06;1795261;78;21739;-58
2021/03/11 10:45:56;;;;;;;12.68;6.58;;;;;;;1.10;41.08;99868.42;1794404;79;21367;-60
2021/03/11 10:48:23;;;;;;;12.05;6.70;;;;;;;1.29;41.04;99881.48;1799703;78;21329;-62
2021/03/11 10:50:54;;;;;;;10.48;6.08;;;;;;;1.52;40.53;99876.54;1815238;78;21268;-57
2021/03/11 10:53:38;;;;;;;10.53;5.55;;;;;;;1.66;40.38;99876.53;1827329;78;21149;-58
2021/03/11 10:56:09;;;;;;;13.00;6.55;;;;;;;1.59;40.11;99876.53;1827707;77;21166;-59
2021/03/11 10:58:40;;;;;;;12.45;7.28;;;;;;;1.49;40.15;99864.04;1827594;78;21576;-58
2021/03/11 11:01:21;;;;;;;14.50;5.60;;;;;;;1.51;40.28;99870.11;1808825;78;21265;-60
2021/03/11 11:03:48;;;;;;;14.53;6.80;;;;;;;1.69;40.06;99862.72;1804539;78;21076;-60
2021/03/11 11:06:17;;;;;;;13.43;6.67;;;;;;;1.93;39.56;99864.56;1814062;78;21268;-59
2021/03/11 11:08:46;;;;;;;16.48;7.80;;;;;;;1.86;39.19;99870.98;1827666;78;21138;-59
2021/03/11 11:11:16;;;;;;;16.37;7.22;;;;;;;1.64;40.06;99861.16;1821439;78;21292;-60
2021/03/11 11:13:45;;;;;;;16.15;7.00;;;;;;;1.67;40.24;99854.11;1799428;78;21156;-62
2021/03/11 11:16:14;;;;;;;10.60;6.15;;;;;;;1.75;40.53;99856.71;1781658;79;21221;-63
2021/03/11 11:18:43;;;;;;;14.18;6.60;;;;;;;1.74;39.95;99840.97;1781557;79;21148;-59
2021/03/11 11:21:12;;;;;;;14.45;6.45;;;;;;;1.51;40.43;99850.63;1781490;79;21301;-63
2021/03/11 11:23:40;;;;;;;14.65;6.00;;;;;;;1.29;40.53;99824.27;1780886;79;21279;-58
2021/03/11 11:26:10;;;;;;;13.00;5.60;;;;;;;1.39;39.66;99825.72;1780843;79;21149;-59
2021/03/11 11:28:39;;;;;;;13.00;5.92;;;;;;;1.56;39.60;99853.86;1781140;79;21132;-60
2021/03/11 11:31:06;;;;;;;11.45;6.08;;;;;;;1.27;39.90;99836.03;1783639;79;21207;-61
2021/03/11 11:33:36;;;;;;;11.85;7.12;;;;;;;1.29;40.36;99823.00;1769612;80;21161;-60
2021/03/11 11:36:05;;;;;;;14.98;7.45;;;;;;;1.63;40.50;99819.08;1769672;80;21154;-59
2021/03/11 11:38:34;;;;;;;11.55;6.37;;;;;;;2.01;40.40;99814.11;1769678;80;21158;-61
2021/03/11 11:41:02;;;;;;;14.47;7.47;;;;;;;2.39;39.12;99829.95;1769912;80;21141;-58
2021/03/11 11:43:31;;;;;;;13.78;5.80;;;;;;;2.65;39.06;99815.27;1769937;80;21299;-59
2021/03/11 11:45:58;;;;;;;10.58;5.80;;;;;;;2.88;37.87;99815.27;1769765;80;21173;-59
2021/03/11 11:48:26;;;;;;;11.25;5.85;;;;;;;2.76;36.59;99829.88;1769626;80;21338;-59
2021/03/11 11:50:55;;;;;;;14.38;7.17;;;;;;;2.39;37.79;99814.67;1769827;80;21157;-58
2021/03/11 11:53:23;;;;;;;12.18;6.60;;;;;;;2.51;38.39;99819.97;1807701;79;21289;-62
2021/03/11 11:55:50;;;;;;;10.70;5.33;;;;;;;2.75;38.10;99822.62;1812962;79;21277;-60
2021/03/11 11:58:19;;;;;;;10.60;5.85;;;;;;;2.60;37.32;99800.11;1812981;78;21262;-60
2021/03/11 12:00:47;;;;;;;13.43;6.58;;;;;;;2.33;37.49;99810.48;1812910;79;21134;-59
2021/03/11 12:03:15;;;;;;;10.78;5.30;;;;;;;2.13;38.30;99819.52;1812929;79;21115;-62
2021/03/11 12:05:44;;;;;;;12.13;5.72;;;;;;;1.83;39.12;99794.45;1812886;78;21135;-61
2021/03/11 12:08:12;;;;;;;10.38;6.25;;;;;;;1.89;38.90;99796.07;1801579;79;21127;-62
2021/03/11 12:10:42;;;;;;;9.33;5.53;;;;;;;1.85;38.19;99797.94;1813832;78;21080;-58
2021/03/11 12:13:10;;;;;;;10.78;5.70;;;;;;;1.82;38.78;99808.34;1827353;78;21135;-63
2021/03/11 12:15:38;;;;;;;15.65;6.25;;;;;;;1.87;38.80;99824.77;1827119;78;21138;-58
2021/03/11 12:18:06;;;;;;;14.93;5.65;;;;;;;2.01;38.93;99812.84;1827080;77;21107;-62
2021/03/11 12:20:36;;;;;;;14.30;6.55;;;;;;;2.00;38.92;99807.27;1827329;77;21350;-63
2021/03/11 12:23:05;;;;;;;11.63;5.35;;;;;;;2.00;39.10;99808.55;1827210;78;21284;-65
2021/03/11 12:25:35;;;;;;;10.32;5.28;;;;;;;2.22;37.64;99803.05;1827363;77;21272;-60
2021/03/11 12:28:04;;;;;;;11.43;5.25;;;;;;;1.99;37.09;99811.89;1818003;77;21112;-58
2021/03/11 12:30:33;;;;;;;10.80;5.83;;;;;;;1.98;38.50;99804.63;1826714;78;21300;-59
2021/03/11 12:33:01;;;;;;;9.60;5.60;;;;;;;2.09;38.39;99796.36;1827188;78;21299;-58
2021/03/11 12:35:30;;;;;;;12.40;6.87;;;;;;;2.27;38.43;99799.96;1827209;77;21276;-61
2021/03/11 12:37:58;;;;;;;11.88;6.67;;;;;;;2.43;38.10;99791.52;1827306;78;21293;-57
2021/03/11 12:40:27;;;;;;;10.32;5.83;;;;;;;2.22;37.57;99798.82;1827089;78;21138;-61
2021/03/11 12:42:55;;;;;;;15.05;6.28;;;;;;;1.93;38.14;99785.30;1820398;78;21134;-63
2021/03/11 12:45:23;;;;;;;16.27;6.05;;;;;;;1.83;38.50;99769.38;1808611;78;21143;-61
2021/03/11 12:47:52;;;;;;;10.80;5.05;;;;;;;2.03;38.47;99767.58;1794737;79;21257;-62
2021/03/11 12:50:21;;;;;;;14.43;5.90;;;;;;;1.85;36.97;99804.30;1794680;80;21148;-60
2021/03/11 12:52:49;;;;;;;10.65;6.58;;;;;;;1.68;38.07;99789.70;1814788;77;21138;-65
2021/03/11 12:55:18;;;;;;;18.52;6.70;;;;;;;1.75;38.14;99774.02;1827278;78;21273;-59
2021/03/11 12:57:46;;;;;;;10.58;5.87;;;;;;;1.74;37.50;99781.17;1827157;78;21265;-58
2021/03/11 13:00:16;;;;;;;13.38;6.90;;;;;;;1.68;37.94;99783.34;1826166;77;21336;-57
2021/03/11 13:02:45;;;;;;;14.85;7.05;;;;;;;1.62;38.35;99775.35;1824083;77;21624;-60
2021/03/11 13:05:14;;;;;;;14.63;7.67;;;;;;;1.55;38.85;99779.59;1826353;77;21169;-62
2021/03/11 13:07:43;;;;;;;16.48;8.10;;;;;;;1.45;39.34;99775.61;1826359;77;21138;-63
2021/03/11 13:10:13;;;;;;;15.72;7.92;;;;;;;1.32;38.90;99776.53;1826749;78;21218;-58
2021/03/11 13:12:42;;;;;;;14.68;6.83;;;;;;;1.46;38.68;99773.17;1816797;78;21202;-59
2021/03/11 13:15:12;;;;;;;12.73;7.10;;;;;;;1.68;38.09;99787.16;1813004;78;21166;-64
2021/03/11 13:17:40;;;;;;;13.48;6.85;;;;;;;1.69;38.26;99773.27;1812825;79;21153;-60
2021/03/11 13:20:10;;;;;;;13.93;6.42;;;;;;;1.62;37.56;99764.78;1793778;78;21146;-64
2021/03/11 13:22:38;;;;;;;16.60;6.90;;;;;;;1.56;37.96;99753.38;1781069;80;21554;-59
2021/03/11 13:25:08;;;;;;;13.15;7.20;;;;;;;1.66;38.57;99746.78;1780797;80;21272;-63
2021/03/11 13:27:36;;;;;;;13.05;6.95;;;;;;;1.81;39.25;99734.95;1743706;81;21688;-61
2021/03/11 13:30:06;;;;;;;14.40;7.75;;;;;;;1.65;40.20;99740.78;1781145;79;21150;-59
2021/03/11 13:32:35;;;;;;;16.67;8.43;;;;;;;1.53;40.69;99722.28;1743974;82;21596;-62
2021/03/11 13:35:05;;;;;;;13.83;8.25;;;;;;;1.70;40.65;99725.80;1781198;79;21158;-59
2021/03/11 13:37:33;;;;;;;14.98;7.95;;;;;;;1.77;40.04;99733.00;1780857;79;21305;-59
2021/03/11 13:40:01;;;;;;;12.10;7.12;;;;;;;1.64;39.22;99739.44;1781058;79;21273;-59
2021/03/11 13:42:29;;;;;;;21.57;9.73;;;;;;;1.42;39.87;99709.31;1781084;80;21285;-58
2021/03/11 13:44:58;;;;;;;14.23;8.55;;;;;;;1.38;40.20;99719.70;1785253;79;21151;-55
2021/03/11 13:47:26;;;;;;;17.02;7.28;;;;;;;1.43;41.54;99719.59;1799632;79;21108;-61
2021/03/11 13:49:54;;;;;;;11.63;6.03;;;;;;;1.42;41.46;99729.25;1791511;78;21164;-62
2021/03/11 13:52:22;;;;;;;15.80;7.90;;;;;;;1.24;41.08;99712.51;1801697;79;21115;-65
2021/03/11 13:54:50;;;;;;;15.18;7.20;;;;;;;1.24;41.33;99710.37;1787188;79;21121;-66
2021/03/11 13:57:18;;;;;;;14.15;8.10;;;;;;;1.18;41.90;99716.37;1797115;79;21102;-59
2021/03/11 13:59:46;;;;;;;16.55;7.25;;;;;;;1.08;42.49;99711.12;1797720;79;21230;-61
2021/03/11 14:02:14;;;;;;;13.08;7.75;;;;;;;1.04;43.11;99687.20;1798348;79;21131;-61
2021/03/11 14:04:42;;;;;;;14.50;7.75;;;;;;;1.03;43.31;99673.98;1797121;79;21129;-59
2021/03/11 14:07:10;;;;;;;15.00;8.38;;;;;;;1.19;43.02;99691.42;1798285;78;21693;-60
2021/03/11 14:09:42;;;;;;;14.53;7.05;;;;;;;1.30;43.04;99680.23;1796070;79;21253;-64
2021/03/11 14:12:10;;;;;;;16.45;8.15;;;;;;;1.36;42.65;99693.30;1799657;78;21564;-63
2021/03/11 14:14:38;;;;;;;15.10;8.20;;;;;;;1.40;42.86;99680.00;1812385;78;21099;-62
2021/03/11 14:17:06;;;;;;;15.88;7.97;;;;;;;1.24;43.27;99680.73;1810341;78;21226;-63
2021/03/11 14:19:34;;;;;;;13.50;7.85;;;;;;;1.03;43.85;99675.25;1809185;78;21276;-62
2021/03/11 14:22:02;;;;;;;16.48;7.37;;;;;;;1.03;44.22;99677.80;1822273;78;21122;-61
2021/03/11 14:24:30;;;;;;;12.65;7.78;;;;;;;1.00;43.69;99690.33;1822347;78;21203;-61
2021/03/11 14:26:58;;;;;;;14.15;7.35;;;;;;;0.98;43.62;99674.09;1796015;78;21130;-59
2021/03/11 14:29:26;;;;;;;13.93;7.28;;;;;;;0.94;43.10;99664.92;1794966;80;21146;-62
2021/03/11 14:31:54;;;;;;;16.00;7.20;;;;;;;0.87;43.24;99649.72;1794649;78;21339;-61
2021/03/11 14:34:22;;;;;;;13.30;7.30;;;;;;;0.91;43.36;99645.28;1802248;78;21270;-59
2021/03/11 14:36:51;;;;;;;14.58;7.03;;;;;;;0.96;43.22;99645.17;1827179;78;21182;-64
2021/03/11 14:39:19;;;;;;;13.30;7.20;;;;;;;0.95;43.44;99657.41;1827314;78;21127;-58
2021/03/11 14:41:46;;;;;;;14.05;7.70;;;;;;;0.86;43.98;99652.63;1826958;78;21256;-62
2021/03/11 14:44:14;;;;;;;12.10;6.85;;;;;;;0.82;43.96;99637.13;1826969;77;21103;-63
2021/03/11 14:46:43;;;;;;;13.38;6.60;;;;;;;0.81;44.08;99644.25;1827066;78;21281;-60
2021/03/11 14:49:12;;;;;;;12.78;7.28;;;;;;;0.78;43.83;99617.00;1813609;78;21088;-60
2021/03/11 14:51:39;;;;;;;12.78;6.40;;;;;;;0.66;43.73;99645.46;1794546;80;21348;-63
2021/03/11 14:54:07;;;;;;;11.35;6.35;;;;;;;0.51;44.04;99617.50;1804831;78;21153;-62
2021/03/11 14:56:35;;;;;;;13.95;6.12;;;;;;;0.54;43.51;99629.11;1794597;80;21217;-62
2021/03/11 14:59:04;;;;;;;9.68;5.62;;;;;;;0.49;43.56;99629.21;1789866;79;21106;-61
2021/03/11 15:01:32;;;;;;;15.78;6.55;;;;;;;0.37;42.91;99612.82;1788565;80;21133;-65
2021/03/11 15:04:02;;;;;;;13.48;6.42;;;;;;;0.23;43.17;99638.13;1793285;78;21324;-62
2021/03/11 15:06:30;;;;;;;11.68;6.20;;;;;;;0.15;43.47;99624.96;1799289;78;21314;-64
2021/03/11 15:08:59;;;;;;;10.32;5.62;;;;;;;0.13;43.69;99616.00;1801108;78;21295;-60
2021/03/11 15:11:28;;;;;;;14.13;6.80;;;;;;;0.17;44.16;99601.83;1821704;78;21098;-63
2021/03/11 15:13:56;;;;;;;9.80;5.58;;;;;;;0.25;44.11;99618.41;1812870;78;21179;-62
2021/03/11 15:16:24;;;;;;;12.18;6.65;;;;;;;0.36;44.12;99611.48;1811545;79;22173;-59
2021/03/11 15:18:54;;;;;;;16.93;6.92;;;;;;;0.30;44.59;99599.66;1795173;79;21119;-60
2021/03/11 15:21:23;;;;;;;12.37;6.35;;;;;;;0.21;44.90;99598.31;1810670;79;21273;-58
2021/03/11 15:23:51;;;;;;;12.13;6.97;;;;;;;0.14;44.94;99607.59;1812953;79;21289;-65
2021/03/11 15:26:19;;;;;;;17.87;7.00;;;;;;;0.04;45.08;99613.27;1813059;79;21285;-64
2021/03/11 15:28:47;;;;;;;12.03;6.45;;;;;;;-0.08;45.54;99620.58;1812888;78;21135;-62
2021/03/11 15:31:14;;;;;;;18.50;7.25;;;;;;;-0.17;45.62;99596.31;1790749;79;21103;-61
2021/03/11 15:33:42;;;;;;;13.43;6.87;;;;;;;-0.26;45.92;99608.00;1780965;79;21186;-60
2021/03/11 15:36:11;;;;;;;12.63;6.78;;;;;;;-0.33;46.27;99615.98;1789275;79;21282;-57
2021/03/11 15:38:43;;;;;;;13.35;7.17;;;;;;;-0.42;46.72;99612.48;1793996;79;21120;-61
2021/03/11 15:41:11;;;;;;;12.53;6.97;;;;;;;-0.50;47.20;99613.25;1812854;78;21134;-60
2021/03/11 15:43:41;;;;;;;14.75;7.65;;;;;;;-0.57;47.53;99598.82;1812829;78;21254;-59
2021/03/11 15:46:09;;;;;;;20.50;8.20;;;;;;;-0.59;47.70;99611.78;1812913;79;21119;-60
2021/03/11 15:48:39;;;;;;;15.38;7.95;;;;;;;-0.59;47.85;99614.31;1812996;79;21261;-65
2021/03/11 15:51:08;;;;;;;16.20;7.50;;;;;;;-0.63;48.16;99602.23;1812975;79;21159;-62
2021/03/11 15:53:36;;;;;;;15.03;8.43;;;;;;;-0.65;48.53;99602.13;1812744;78;21131;-62
2021/03/11 15:56:05;;;;;;;17.62;8.95;;;;;;;-0.66;48.71;99602.52;1793941;79;21145;-64
2021/03/11 15:58:32;;;;;;;17.82;7.55;;;;;;;-0.69;48.87;99601.42;1781045;80;21553;-60
2021/03/11 16:01:00;;;;;;;17.37;8.50;;;;;;;-0.69;48.99;99597.25;1790142;79;21213;-63
2021/03/11 16:03:29;;;;;;;16.90;8.08;;;;;;;-0.68;49.24;99602.80;1810195;79;21141;-60
2021/03/11 16:05:57;;;;;;;17.25;8.60;;;;;;;-0.69;49.22;99597.25;1808117;79;21118;-65
2021/03/11 16:08:26;;;;;;;19.87;8.78;;;;;;;-0.73;49.12;99600.35;1785988;79;21152;-60
2021/03/11 16:10:53;;;;;;;17.00;7.92;;;;;;;-0.74;49.19;99592.64;1781028;79;21135;-63
2021/03/11 16:13:21;;;;;;;19.52;8.65;;;;;;;-0.79;49.18;99595.26;1785912;79;21164;-63
2021/03/11 16:15:49;;;;;;;15.35;9.05;;;;;;;-0.83;49.06;99591.66;1789384;80;21283;-62
2021/03/11 16:18:18;;;;;;;21.30;8.38;;;;;;;-0.83;49.23;99576.45;1789067;80;21321;-63
2021/03/11 16:20:46;;;;;;;17.52;8.03;;;;;;;-0.84;49.29;99598.78;1803834;77;21150;-60
2021/03/11 16:23:14;;;;;;;18.00;8.13;;;;;;;-0.85;49.08;99592.34;1821335;77;21293;-65
2021/03/11 16:25:42;;;;;;;18.52;8.30;;;;;;;-0.86;49.22;99598.19;1821555;79;21556;-59
2021/03/11 16:28:10;;;;;;;23.07;8.90;;;;;;;-0.91;49.42;99591.16;1821658;79;21288;-62
2021/03/11 16:30:39;;;;;;;17.12;8.85;;;;;;;-0.93;49.52;99585.50;1821455;79;21103;-61
2021/03/11 16:33:07;;;;;;;19.90;9.58;;;;;;;-0.94;49.78;99599.83;1821307;79;21135;-57
2021/03/11 16:35:36;;;;;;;26.55;9.73;;;;;;;-0.96;49.92;99591.63;1819264;77;21122;-63
2021/03/11 16:38:05;;;;;;;19.25;9.68;;;;;;;-0.98;50.08;99588.11;1821514;77;21225;-57
2021/03/11 16:40:34;;;;;;;20.97;9.45;;;;;;;-1.01;50.31;99592.59;1821320;79;21140;-63
2021/03/11 16:43:02;;;;;;;18.23;8.98;;;;;;;-1.04;50.35;99580.09;1821057;77;21111;-61
2021/03/11 16:45:30;;;;;;;22.07;9.65;;;;;;;-1.02;50.48;99582.34;1821340;77;21277;-63
2021/03/11 16:47:58;;;;;;;17.27;8.43;;;;;;;-1.03;50.65;99579.33;1821503;77;21204;-61
2021/03/11 16:50:26;;;;;;;20.30;8.98;;;;;;;-1.04;50.62;99582.63;1821731;78;21106;-63
2021/03/11 16:52:54;;;;;;;22.30;9.70;;;;;;;-1.11;50.80;99582.63;1821340;79;21265;-64
2021/03/11 16:55:22;;;;;;;24.87;9.83;;;;;;;-1.15;51.08;99586.58;1821220;79;21161;-62
2021/03/11 16:57:50;;;;;;;18.80;8.98;;;;;;;-1.18;51.09;99585.52;1794536;78;21273;-63
2021/03/11 17:00:20;;;;;;;19.10;9.30;;;;;;;-1.18;50.74;99583.84;1789084;79;21124;-59